Parkers Prairie, Minnesota
Current Conditions -  °F | °C
As of 10:36 AM on Monday 24 Nov 2014 (Local Time) from KAXN Reporting Station
Light Snow Light Snow  
Wind Chill: -5°   Ceiling: 1300
Heat Index: 12°   Visibility: 1.2mi
Dew Point:   Wind: 17mph
Humidity: 80%   Direction: 330°NNW
Pressure: 29.57"   Gusts: 28mph
Location:  46.15°N, 95.33°W
Report Text: KAXN 241636Z AUTO 33015G24KT 1 1/4SM -SN BKN013 OVC029 M11/M14 A2957 RMK AO2 PK WND 32029/1615 P0000 T11111139
Loading
Personal Weather Stations






























Interactive Weather Map New forecast layout! Learn more

10-Day Weather Forecast

Advertisements
Track Severe Weather on mobile